Augsburg, Illinois
Current Conditions -  °F | °C
As of 11:55 PM on Monday 26 Jan 2015 (Local Time) from KSLO Reporting Station
Overcast Overcast  
Wind Chill: 34°   Ceiling: 6000
Heat Index: 34°   Visibility: 7mi
Dew Point: 31°   Wind: 0mph
Humidity: 88%   Direction: NA
Pressure: 29.89"   Gusts: NA
Location:  38.8463°N, 89.0894°W
Report Text: KSLO 270555Z AUTO 00000KT 7SM OVC060 01/M01 A2989 RMK AO2 T00101008 10014 20007 400141027
Loading
Personal Weather Stations






























Interactive Weather Map New forecast layout! Learn more

10-Day Weather Forecast

Advertisements
Track Severe Weather on mobile